Katama — WBP4751 — position and weather

sailwx.info

Track history (hours):
 
Tides and Currents Weather Stations Pressure Air Temp Water Temp Dewpoint Dewpoint Depression Visibility Wind Speed Wind Dir Waves Ship Positions

Katama

Owner: WOODS HOLE, MARTHA'S VINEYARD AND NANTUCKET STEAMSHIP AUTHORITY, WOODS HOLE, MA. More information available from US FCC via Universal Licensing System and Coast Guard Vessel Documentation Center.

Last reported at 2017-May-24 03:15 UTC. Time now 2017-May-24 04:10 UTC.
Position N 41°39' W 070°17'.

Length 66 m; draft 3 m.

Type: Ship. MMSI: 367327330.

Date/timePositionNaut miles runAvg speedWind from/ knotsBaromVisibWave heightAir tempDewpointWater temp
2017-May-24 03:15N 41°39' W 070°17'0 0.0
2017-May-24 03:00N 41°39' W 070°17'0 0.0
2017-May-24 02:30N 41°39' W 070°17'0 0.0
2017-May-24 02:00N 41°39' W 070°17'0 0.0
2017-May-24 01:30N 41°39' W 070°17'0 0.0
2017-May-24 01:00N 41°39' W 070°17'4 1.0
2017-May-23 20:40N 41°35' W 070°17'211.0
2017-May-23 20:30N 41°37' W 070°17'3 5.1
2017-May-23 20:00N 41°39' W 070°17'0 0.7
2017-May-23 19:30N 41°39' W 070°16'5 1.0
2017-May-23 15:10N 41°34' W 070°17'211.4
2017-May-23 15:00N 41°36' W 070°17'3 2.9
2017-May-23 14:01N 41°39' W 070°17'6 1.6
2017-May-23 10:10N 41°33' W 070°15'312.5
2017-May-23 09:56N 41°36' W 070°17'3 7.6
2017-May-23 09:30N 41°39' W 070°17'0 0.2
2017-May-23 09:00N 41°39' W 070°17'0 0.0
2017-May-22 03:19N 41°39' W 070°17'0 0.0
2017-May-22 03:00N 41°39' W 070°17'0 0.0
2017-May-22 02:30N 41°39' W 070°17'0 0.0
2017-May-22 02:00N 41°39' W 070°17'0 0.0
2017-May-22 01:30N 41°39' W 070°17'0 0.0
2017-May-22 01:00N 41°39' W 070°17'6 1.4
2017-May-21 20:55N 41°33' W 070°16'410.2
2017-May-21 20:31N 41°37' W 070°17'2 3.1
2017-May-21 20:00N 41°39' W 070°17'0 0.0
2017-May-21 19:30N 41°39' W 070°17'5 1.2
2017-May-21 15:17N 41°34' W 070°16'310.9
2017-May-21 15:00N 41°37' W 070°17'2 4.9
2017-May-21 14:30N 41°39' W 070°17'4 0.9
2017-May-21 10:02N 41°35' W 070°17'011.7
2017-May-21 10:00N 41°36' W 070°17'4 7.2
2017-May-21 09:30N 41°39' W 070°17'0 0.0
2017-May-21 02:03N 41°39' W 070°17'0 0.4
2017-May-21 02:00N 41°39' W 070°17'0 0.0
2017-May-21 01:30N 41°39' W 070°17'0 0.0
2017-May-21 01:00N 41°39' W 070°17'2 3.2
2017-May-21 00:30N 41°37' W 070°17'2 0.6
2017-May-20 20:40N 41°35' W 070°17'211.7
2017-May-20 20:30N 41°37' W 070°18'2 4.6
2017-May-20 20:00N 41°39' W 070°17'1 2.4
2017-May-20 19:30N 41°38' W 070°16'4 1.0
2017-May-20 15:25N 41°34' W 070°16'4 9.4
2017-May-20 15:00N 41°38' W 070°16'1 0.5
2017-May-20 14:00N 41°38' W 070°16'3 0.7
2017-May-20 09:57N 41°35' W 070°17'4 7.8
2017-May-20 09:30N 41°39' W 070°17'4 0.2
2017-May-19 15:14N 41°35' W 070°17'2 9.9
2017-May-19 15:00N 41°37' W 070°17'1 0.6
2017-May-19 14:00N 41°38' W 070°16'2 0.5
2017-May-19 09:55N 41°36' W 070°17'3 7.3
2017-May-19 09:30N 41°39' W 070°17'0 0.2
2017-May-19 09:00N 41°39' W 070°17'0 0.0
2017-May-19 08:30N 41°39' W 070°17'0 0.0
2017-May-19 08:00N 41°39' W 070°17'0 0.0
2017-May-19 07:30N 41°39' W 070°17'0 0.0
2017-May-19 07:00N 41°39' W 070°17'0 0.0
2017-May-19 06:30N 41°39' W 070°17'0 0.0
2017-May-19 06:00N 41°39' W 070°17'0 0.0
2017-May-19 05:30N 41°39' W 070°17'0 0.0
2017-May-19 05:00N 41°39' W 070°17'0 0.0
2017-May-19 04:30N 41°39' W 070°17'0 0.0
2017-May-19 04:00N 41°39' W 070°17'0 0.0
2017-May-19 03:30N 41°39' W 070°17'0 0.0
2017-May-19 03:00N 41°39' W 070°17'0 0.0
2017-May-19 02:30N 41°39' W 070°17'0 0.0
2017-May-19 02:00N 41°39' W 070°17'0 0.0
2017-May-19 01:30N 41°39' W 070°17'6 1.3
2017-May-18 21:13N 41°34' W 070°16'311.4
2017-May-18 21:00N 41°36' W 070°17'3 6.2
2017-May-18 20:31N 41°39' W 070°17'0 0.1
2017-May-18 20:00N 41°39' W 070°17'1 2.6
2017-May-18 19:30N 41°38' W 070°16'3 0.8
2017-May-18 15:16N 41°34' W 070°16'310.7
2017-May-18 15:01N 41°37' W 070°18'2 1.9
2017-May-18 14:01N 41°39' W 070°16'23 9.6
2017-May-18 11:36N 41°17' W 070°06'2011.5
2017-May-18 09:52N 41°35' W 070°17'4 0.5
2017-May-18 01:58N 41°39' W 070°17'0 0.0
2017-May-18 01:30N 41°39' W 070°17'1 2.0
2017-May-18 01:00N 41°38' W 070°16'3 0.7
2017-May-17 20:53N 41°35' W 070°17'3 8.4
2017-May-17 20:30N 41°38' W 070°16'1 1.6
2017-May-17 20:00N 41°39' W 070°17'2 3.6
2017-May-17 19:31N 41°37' W 070°17'3 0.8
2017-May-17 15:33N 41°34' W 070°16'111.3
2017-May-17 15:30N 41°35' W 070°17'4 7.9
2017-May-17 15:00N 41°38' W 070°16'1 1.3
2017-May-17 14:30N 41°39' W 070°17'3 0.8
2017-May-17 09:56N 41°36' W 070°17'3 0.5
2017-May-17 03:27N 41°39' W 070°17'0 0.0
2017-May-17 03:00N 41°39' W 070°17'0 0.0
2017-May-17 02:30N 41°39' W 070°17'0 0.0
2017-May-17 02:00N 41°39' W 070°17'0 0.0
2017-May-17 01:30N 41°39' W 070°17'1 2.4
2017-May-17 01:01N 41°38' W 070°16'2 0.5
2017-May-16 20:50N 41°36' W 070°17'3 8.9
2017-May-16 20:30N 41°39' W 070°16'1 1.3
2017-May-16 20:00N 41°39' W 070°17'2 3.7
2017-May-16 19:30N 41°37' W 070°17'3 0.6
2017-May-16 15:36N 41°35' W 070°16'111.8
2017-May-16 15:30N 41°36' W 070°17'3 6.4
2017-May-16 15:00N 41°39' W 070°17'0 0.0
2017-May-16 14:30N 41°39' W 070°17'5 1.3
2017-May-16 10:15N 41°34' W 070°16'310.5
2017-May-16 10:00N 41°36' W 070°17'3 6.0
2017-May-16 09:30N 41°39' W 070°17'0 0.0
2017-May-16 09:00N 41°39' W 070°17'0 0.0
2017-May-16 08:30N 41°39' W 070°17'0 0.0
2017-May-16 08:00N 41°39' W 070°17'0 0.0
2017-May-16 07:30N 41°39' W 070°17'0 0.0
2017-May-16 07:00N 41°39' W 070°17'0 0.0
2017-May-16 06:30N 41°39' W 070°17'0 0.0
2017-May-16 06:00N 41°39' W 070°17'0 0.0
2017-May-16 05:30N 41°39' W 070°17'0 0.0
2017-May-16 05:00N 41°39' W 070°17'0 0.0
2017-May-16 04:30N 41°39' W 070°17'0 0.0
2017-May-16 04:00N 41°39' W 070°17'0 0.0
2017-May-16 03:30N 41°39' W 070°17'0 0.0
2017-May-16 03:00N 41°39' W 070°17'0 0.0
2017-May-16 02:30N 41°39' W 070°17'0 0.0
2017-May-16 02:00N 41°39' W 070°17'0 0.0
2017-May-16 01:30N 41°39' W 070°17'0 0.0
2017-May-16 01:00N 41°39' W 070°17'2 4.2
2017-May-16 00:31N 41°37' W 070°17'3 0.8
2017-May-15 20:46N 41°34' W 070°16'310.9
2017-May-15 20:30N 41°37' W 070°18'2 4.5
2017-May-15 20:00N 41°39' W 070°17'1 1.8
2017-May-15 19:30N 41°38' W 070°16'3 0.6
2017-May-15 15:24N 41°36' W 070°17'3 8.0
2017-May-15 14:59N 41°39' W 070°17'0 0.2
2017-May-15 14:30N 41°39' W 070°17'  
Track history (hours):
 
Tides and Currents Weather Stations Pressure Air Temp Water Temp Dewpoint Dewpoint Depression Visibility Wind Speed Wind Dir Waves Ship Positions

Katama

Owner: WOODS HOLE, MARTHA'S VINEYARD AND NANTUCKET STEAMSHIP AUTHORITY, WOODS HOLE, MA. More information available from US FCC via Universal Licensing System and Coast Guard Vessel Documentation Center.

Last reported at 2017-May-24 03:15 UTC. Time now 2017-May-24 04:10 UTC.
Position N 41°39' W 070°17'.

Length 66 m; draft 3 m.

Type: Ship. MMSI: 367327330.

Date/timePositionNaut miles runAvg speedWind from/ knotsBaromVisibWave heightAir tempDewpointWater temp
2017-May-24 03:15N 41°39' W 070°17'0 0.0
2017-May-24 03:00N 41°39' W 070°17'0 0.0
2017-May-24 02:30N 41°39' W 070°17'0 0.0
2017-May-24 02:00N 41°39' W 070°17'0 0.0
2017-May-24 01:30N 41°39' W 070°17'0 0.0
2017-May-24 01:00N 41°39' W 070°17'4 1.0
2017-May-23 20:40N 41°35' W 070°17'211.0
2017-May-23 20:30N 41°37' W 070°17'3 5.1
2017-May-23 20:00N 41°39' W 070°17'0 0.7
2017-May-23 19:30N 41°39' W 070°16'5 1.0
2017-May-23 15:10N 41°34' W 070°17'211.4
2017-May-23 15:00N 41°36' W 070°17'3 2.9
2017-May-23 14:01N 41°39' W 070°17'6 1.6
2017-May-23 10:10N 41°33' W 070°15'312.5
2017-May-23 09:56N 41°36' W 070°17'3 7.6
2017-May-23 09:30N 41°39' W 070°17'0 0.2
2017-May-23 09:00N 41°39' W 070°17'0 0.0
2017-May-22 03:19N 41°39' W 070°17'0 0.0
2017-May-22 03:00N 41°39' W 070°17'0 0.0
2017-May-22 02:30N 41°39' W 070°17'0 0.0
2017-May-22 02:00N 41°39' W 070°17'0 0.0
2017-May-22 01:30N 41°39' W 070°17'0 0.0
2017-May-22 01:00N 41°39' W 070°17'6 1.4
2017-May-21 20:55N 41°33' W 070°16'410.2
2017-May-21 20:31N 41°37' W 070°17'2 3.1
2017-May-21 20:00N 41°39' W 070°17'0 0.0
2017-May-21 19:30N 41°39' W 070°17'5 1.2
2017-May-21 15:17N 41°34' W 070°16'310.9
2017-May-21 15:00N 41°37' W 070°17'2 4.9
2017-May-21 14:30N 41°39' W 070°17'4 0.9
2017-May-21 10:02N 41°35' W 070°17'011.7
2017-May-21 10:00N 41°36' W 070°17'4 7.2
2017-May-21 09:30N 41°39' W 070°17'0 0.0
2017-May-21 02:03N 41°39' W 070°17'0 0.4
2017-May-21 02:00N 41°39' W 070°17'0 0.0
2017-May-21 01:30N 41°39' W 070°17'0 0.0
2017-May-21 01:00N 41°39' W 070°17'2 3.2
2017-May-21 00:30N 41°37' W 070°17'2 0.6
2017-May-20 20:40N 41°35' W 070°17'211.7
2017-May-20 20:30N 41°37' W 070°18'2 4.6
2017-May-20 20:00N 41°39' W 070°17'1 2.4
2017-May-20 19:30N 41°38' W 070°16'4 1.0
2017-May-20 15:25N 41°34' W 070°16'4 9.4
2017-May-20 15:00N 41°38' W 070°16'1 0.5
2017-May-20 14:00N 41°38' W 070°16'3 0.7
2017-May-20 09:57N 41°35' W 070°17'4 7.8
2017-May-20 09:30N 41°39' W 070°17'4 0.2
2017-May-19 15:14N 41°35' W 070°17'2 9.9
2017-May-19 15:00N 41°37' W 070°17'1 0.6
2017-May-19 14:00N 41°38' W 070°16'2 0.5
2017-May-19 09:55N 41°36' W 070°17'3 7.3
2017-May-19 09:30N 41°39' W 070°17'0 0.2
2017-May-19 09:00N 41°39' W 070°17'0 0.0
2017-May-19 08:30N 41°39' W 070°17'0 0.0
2017-May-19 08:00N 41°39' W 070°17'0 0.0
2017-May-19 07:30N 41°39' W 070°17'0 0.0
2017-May-19 07:00N 41°39' W 070°17'0 0.0
2017-May-19 06:30N 41°39' W 070°17'0 0.0
2017-May-19 06:00N 41°39' W 070°17'0 0.0
2017-May-19 05:30N 41°39' W 070°17'0 0.0
2017-May-19 05:00N 41°39' W 070°17'0 0.0
2017-May-19 04:30N 41°39' W 070°17'0 0.0
2017-May-19 04:00N 41°39' W 070°17'0 0.0
2017-May-19 03:30N 41°39' W 070°17'0 0.0
2017-May-19 03:00N 41°39' W 070°17'0 0.0
2017-May-19 02:30N 41°39' W 070°17'0 0.0
2017-May-19 02:00N 41°39' W 070°17'0 0.0
2017-May-19 01:30N 41°39' W 070°17'6 1.3
2017-May-18 21:13N 41°34' W 070°16'311.4
2017-May-18 21:00N 41°36' W 070°17'3 6.2
2017-May-18 20:31N 41°39' W 070°17'0 0.1
2017-May-18 20:00N 41°39' W 070°17'1 2.6
2017-May-18 19:30N 41°38' W 070°16'3 0.8
2017-May-18 15:16N 41°34' W 070°16'310.7
2017-May-18 15:01N 41°37' W 070°18'2 1.9
2017-May-18 14:01N 41°39' W 070°16'23 9.6
2017-May-18 11:36N 41°17' W 070°06'2011.5
2017-May-18 09:52N 41°35' W 070°17'4 0.5
2017-May-18 01:58N 41°39' W 070°17'0 0.0
2017-May-18 01:30N 41°39' W 070°17'1 2.0
2017-May-18 01:00N 41°38' W 070°16'3 0.7
2017-May-17 20:53N 41°35' W 070°17'3 8.4
2017-May-17 20:30N 41°38' W 070°16'1 1.6
2017-May-17 20:00N 41°39' W 070°17'2 3.6
2017-May-17 19:31N 41°37' W 070°17'3 0.8
2017-May-17 15:33N 41°34' W 070°16'111.3
2017-May-17 15:30N 41°35' W 070°17'4 7.9
2017-May-17 15:00N 41°38' W 070°16'1 1.3
2017-May-17 14:30N 41°39' W 070°17'3 0.8
2017-May-17 09:56N 41°36' W 070°17'3 0.5
2017-May-17 03:27N 41°39' W 070°17'0 0.0
2017-May-17 03:00N 41°39' W 070°17'0 0.0
2017-May-17 02:30N 41°39' W 070°17'0 0.0
2017-May-17 02:00N 41°39' W 070°17'0 0.0
2017-May-17 01:30N 41°39' W 070°17'1 2.4
2017-May-17 01:01N 41°38' W 070°16'2 0.5
2017-May-16 20:50N 41°36' W 070°17'3 8.9
2017-May-16 20:30N 41°39' W 070°16'1 1.3
2017-May-16 20:00N 41°39' W 070°17'2 3.7
2017-May-16 19:30N 41°37' W 070°17'3 0.6
2017-May-16 15:36N 41°35' W 070°16'111.8
2017-May-16 15:30N 41°36' W 070°17'3 6.4
2017-May-16 15:00N 41°39' W 070°17'0 0.0
2017-May-16 14:30N 41°39' W 070°17'5 1.3
2017-May-16 10:15N 41°34' W 070°16'310.5
2017-May-16 10:00N 41°36' W 070°17'3 6.0
2017-May-16 09:30N 41°39' W 070°17'0 0.0
2017-May-16 09:00N 41°39' W 070°17'0 0.0
2017-May-16 08:30N 41°39' W 070°17'0 0.0
2017-May-16 08:00N 41°39' W 070°17'0 0.0
2017-May-16 07:30N 41°39' W 070°17'0 0.0
2017-May-16 07:00N 41°39' W 070°17'0 0.0
2017-May-16 06:30N 41°39' W 070°17'0 0.0
2017-May-16 06:00N 41°39' W 070°17'0 0.0
2017-May-16 05:30N 41°39' W 070°17'0 0.0
2017-May-16 05:00N 41°39' W 070°17'0 0.0
2017-May-16 04:30N 41°39' W 070°17'0 0.0
2017-May-16 04:00N 41°39' W 070°17'0 0.0
2017-May-16 03:30N 41°39' W 070°17'0 0.0
2017-May-16 03:00N 41°39' W 070°17'0 0.0
2017-May-16 02:30N 41°39' W 070°17'0 0.0
2017-May-16 02:00N 41°39' W 070°17'0 0.0
2017-May-16 01:30N 41°39' W 070°17'0 0.0
2017-May-16 01:00N 41°39' W 070°17'2 4.2
2017-May-16 00:31N 41°37' W 070°17'3 0.8
2017-May-15 20:46N 41°34' W 070°16'310.9
2017-May-15 20:30N 41°37' W 070°18'2 4.5
2017-May-15 20:00N 41°39' W 070°17'1 1.8
2017-May-15 19:30N 41°38' W 070°16'3 0.6
2017-May-15 15:24N 41°36' W 070°17'3 8.0
2017-May-15 14:59N 41°39' W 070°17'0 0.2
2017-May-15 14:30N 41°39' W 070°17'  

Dump ship's entire track history